sensor_id;sensor_type;location;lat;lon;timestamp;P1;durP1;ratioP1;P2;durP2;ratioP2
21959;SDS011;11144;43.030;25.108;2024-01-16T00:00:55;114.32;;;54.67;;
21959;SDS011;11144;43.030;25.108;2024-01-16T00:02:29;108.55;;;54.72;;
21959;SDS011;11144;43.030;25.108;2024-01-16T00:04:01;114.70;;;54.00;;
21959;SDS011;11144;43.030;25.108;2024-01-16T00:05:34;121.43;;;57.17;;
21959;SDS011;11144;43.030;25.108;2024-01-16T00:07:07;110.22;;;53.10;;
21959;SDS011;11144;43.030;25.108;2024-01-16T00:08:40;115.05;;;56.47;;
21959;SDS011;11144;43.030;25.108;2024-01-16T00:10:13;114.72;;;56.15;;
21959;SDS011;11144;43.030;25.108;2024-01-16T00:11:47;114.22;;;55.97;;
21959;SDS011;11144;43.030;25.108;2024-01-16T00:13:19;101.57;;;48.35;;
21959;SDS011;11144;43.030;25.108;2024-01-16T00:14:53;98.20;;;47.92;;
21959;SDS011;11144;43.030;25.108;2024-01-16T00:16:27;94.50;;;44.78;;
21959;SDS011;11144;43.030;25.108;2024-01-16T00:18:00;95.70;;;46.28;;
21959;SDS011;11144;43.030;25.108;2024-01-16T00:19:32;97.20;;;47.88;;
21959;SDS011;11144;43.030;25.108;2024-01-16T00:21:06;91.35;;;48.33;;
21959;SDS011;11144;43.030;25.108;2024-01-16T00:22:39;99.68;;;50.22;;
21959;SDS011;11144;43.030;25.108;2024-01-16T00:24:12;111.45;;;51.40;;
21959;SDS011;11144;43.030;25.108;2024-01-16T00:25:45;109.60;;;54.03;;
21959;SDS011;11144;43.030;25.108;2024-01-16T00:27:18;117.30;;;55.03;;
21959;SDS011;11144;43.030;25.108;2024-01-16T00:28:52;126.10;;;57.30;;
21959;SDS011;11144;43.030;25.108;2024-01-16T00:30:24;113.10;;;52.13;;
21959;SDS011;11144;43.030;25.108;2024-01-16T00:31:59;124.93;;;56.85;;
21959;SDS011;11144;43.030;25.108;2024-01-16T00:33:31;114.38;;;55.78;;
21959;SDS011;11144;43.030;25.108;2024-01-16T00:35:05;119.35;;;57.05;;
21959;SDS011;11144;43.030;25.108;2024-01-16T00:36:39;130.63;;;61.30;;
21959;SDS011;11144;43.030;25.108;2024-01-16T00:38:11;142.18;;;62.33;;
21959;SDS011;11144;43.030;25.108;2024-01-16T00:39:45;133.85;;;60.65;;
21959;SDS011;11144;43.030;25.108;2024-01-16T00:41:17;126.45;;;61.55;;
21959;SDS011;11144;43.030;25.108;2024-01-16T00:42:50;118.00;;;56.67;;
21959;SDS011;11144;43.030;25.108;2024-01-16T00:44:23;100.70;;;50.22;;
21959;SDS011;11144;43.030;25.108;2024-01-16T00:45:57;111.32;;;53.83;;
21959;SDS011;11144;43.030;25.108;2024-01-16T00:47:30;123.68;;;58.47;;
21959;SDS011;11144;43.030;25.108;2024-01-16T00:49:04;128.27;;;56.42;;
21959;SDS011;11144;43.030;25.108;2024-01-16T00:50:38;130.15;;;59.50;;
21959;SDS011;11144;43.030;25.108;2024-01-16T00:52:12;132.35;;;59.88;;
21959;SDS011;11144;43.030;25.108;2024-01-16T00:53:44;135.60;;;62.80;;
21959;SDS011;11144;43.030;25.108;2024-01-16T00:55:18;140.57;;;63.55;;
21959;SDS011;11144;43.030;25.108;2024-01-16T00:56:50;135.02;;;64.40;;
21959;SDS011;11144;43.030;25.108;2024-01-16T00:58:27;138.48;;;64.68;;
21959;SDS011;11144;43.030;25.108;2024-01-16T00:59:59;134.98;;;66.72;;
21959;SDS011;11144;43.030;25.108;2024-01-16T01:01:33;148.75;;;70.20;;
21959;SDS011;11144;43.030;25.108;2024-01-16T01:03:07;153.75;;;73.07;;
21959;SDS011;11144;43.030;25.108;2024-01-16T01:04:40;158.05;;;73.18;;
21959;SDS011;11144;43.030;25.108;2024-01-16T01:06:13;131.07;;;67.13;;
21959;SDS011;11144;43.030;25.108;2024-01-16T01:07:47;166.93;;;79.28;;
21959;SDS011;11144;43.030;25.108;2024-01-16T01:09:19;180.52;;;83.30;;
21959;SDS011;11144;43.030;25.108;2024-01-16T01:10:53;196.88;;;89.53;;
21959;SDS011;11144;43.030;25.108;2024-01-16T01:12:26;182.70;;;84.88;;
21959;SDS011;11144;43.030;25.108;2024-01-16T01:14:00;193.27;;;87.55;;
21959;SDS011;11144;43.030;25.108;2024-01-16T01:15:32;186.52;;;85.45;;
21959;SDS011;11144;43.030;25.108;2024-01-16T01:17:06;178.20;;;82.93;;
21959;SDS011;11144;43.030;25.108;2024-01-16T01:18:40;178.85;;;83.07;;
21959;SDS011;11144;43.030;25.108;2024-01-16T01:20:14;175.93;;;81.20;;
21959;SDS011;11144;43.030;25.108;2024-01-16T01:21:47;140.98;;;67.63;;
21959;SDS011;11144;43.030;25.108;2024-01-16T01:23:21;134.32;;;63.95;;
21959;SDS011;11144;43.030;25.108;2024-01-16T01:24:53;113.10;;;56.30;;
21959;SDS011;11144;43.030;25.108;2024-01-16T01:26:27;144.02;;;66.80;;
21959;SDS011;11144;43.030;25.108;2024-01-16T01:28:00;139.52;;;64.28;;
21959;SDS011;11144;43.030;25.108;2024-01-16T01:29:33;128.43;;;58.70;;
21959;SDS011;11144;43.030;25.108;2024-01-16T01:31:05;108.22;;;51.53;;
21959;SDS011;11144;43.030;25.108;2024-01-16T01:32:41;101.10;;;50.70;;
21959;SDS011;11144;43.030;25.108;2024-01-16T01:34:17;101.57;;;50.97;;
21959;SDS011;11144;43.030;25.108;2024-01-16T01:35:51;78.28;;;37.88;;
21959;SDS011;11144;43.030;25.108;2024-01-16T01:37:24;82.50;;;39.45;;
21959;SDS011;11144;43.030;25.108;2024-01-16T01:38:57;82.75;;;39.30;;
21959;SDS011;11144;43.030;25.108;2024-01-16T01:40:29;83.53;;;38.90;;
21959;SDS011;11144;43.030;25.108;2024-01-16T01:42:03;77.00;;;35.42;;
21959;SDS011;11144;43.030;25.108;2024-01-16T01:43:35;79.80;;;35.97;;
21959;SDS011;11144;43.030;25.108;2024-01-16T01:45:10;72.93;;;34.75;;
21959;SDS011;11144;43.030;25.108;2024-01-16T01:46:43;86.60;;;40.58;;
21959;SDS011;11144;43.030;25.108;2024-01-16T01:48:18;77.95;;;37.95;;
21959;SDS011;11144;43.030;25.108;2024-01-16T01:49:52;104.40;;;49.75;;
21959;SDS011;11144;43.030;25.108;2024-01-16T01:51:25;86.18;;;41.75;;
21959;SDS011;11144;43.030;25.108;2024-01-16T01:52:58;96.07;;;45.33;;
21959;SDS011;11144;43.030;25.108;2024-01-16T01:54:31;78.38;;;39.90;;
21959;SDS011;11144;43.030;25.108;2024-01-16T01:56:07;70.97;;;35.40;;
21959;SDS011;11144;43.030;25.108;2024-01-16T01:57:42;70.25;;;34.75;;
21959;SDS011;11144;43.030;25.108;2024-01-16T01:59:16;64.03;;;32.95;;
21959;SDS011;11144;43.030;25.108;2024-01-16T02:00:51;68.05;;;35.72;;
21959;SDS011;11144;43.030;25.108;2024-01-16T02:02:25;101.25;;;42.47;;
21959;SDS011;11144;43.030;25.108;2024-01-16T02:03:59;100.57;;;44.50;;
21959;SDS011;11144;43.030;25.108;2024-01-16T02:05:36;82.57;;;39.13;;
21959;SDS011;11144;43.030;25.108;2024-01-16T02:07:10;74.85;;;37.88;;
21959;SDS011;11144;43.030;25.108;2024-01-16T02:08:44;78.93;;;37.25;;
21959;SDS011;11144;43.030;25.108;2024-01-16T02:10:17;87.45;;;37.20;;
21959;SDS011;11144;43.030;25.108;2024-01-16T02:11:50;79.55;;;35.35;;
21959;SDS011;11144;43.030;25.108;2024-01-16T02:13:23;88.55;;;40.60;;
21959;SDS011;11144;43.030;25.108;2024-01-16T02:14:57;85.63;;;40.72;;
21959;SDS011;11144;43.030;25.108;2024-01-16T02:16:35;85.00;;;40.30;;
21959;SDS011;11144;43.030;25.108;2024-01-16T02:18:09;76.13;;;36.13;;
21959;SDS011;11144;43.030;25.108;2024-01-16T02:19:43;87.45;;;37.78;;
21959;SDS011;11144;43.030;25.108;2024-01-16T02:21:17;82.22;;;36.85;;
21959;SDS011;11144;43.030;25.108;2024-01-16T02:22:52;69.53;;;35.75;;
21959;SDS011;11144;43.030;25.108;2024-01-16T02:24:29;80.30;;;38.28;;
21959;SDS011;11144;43.030;25.108;2024-01-16T02:26:02;72.13;;;34.10;;
21959;SDS011;11144;43.030;25.108;2024-01-16T02:27:36;53.33;;;28.80;;
21959;SDS011;11144;43.030;25.108;2024-01-16T02:29:10;59.50;;;31.67;;
21959;SDS011;11144;43.030;25.108;2024-01-16T02:30:43;76.70;;;38.75;;
21959;SDS011;11144;43.030;25.108;2024-01-16T02:32:16;83.50;;;42.00;;
21959;SDS011;11144;43.030;25.108;2024-01-16T02:33:49;87.28;;;43.17;;
21959;SDS011;11144;43.030;25.108;2024-01-16T02:35:22;97.05;;;48.33;;
21959;SDS011;11144;43.030;25.108;2024-01-16T02:36:55;88.00;;;45.47;;
21959;SDS011;11144;43.030;25.108;2024-01-16T02:38:28;75.90;;;40.95;;
21959;SDS011;11144;43.030;25.108;2024-01-16T02:40:02;77.30;;;40.15;;
21959;SDS011;11144;43.030;25.108;2024-01-16T02:41:38;97.80;;;44.03;;
21959;SDS011;11144;43.030;25.108;2024-01-16T02:43:12;86.30;;;44.17;;
21959;SDS011;11144;43.030;25.108;2024-01-16T02:44:44;79.15;;;42.50;;
21959;SDS011;11144;43.030;25.108;2024-01-16T02:46:18;90.93;;;44.60;;
21959;SDS011;11144;43.030;25.108;2024-01-16T02:47:50;86.88;;;43.42;;
21959;SDS011;11144;43.030;25.108;2024-01-16T02:49:24;84.30;;;44.03;;
21959;SDS011;11144;43.030;25.108;2024-01-16T02:50:58;91.60;;;44.20;;
21959;SDS011;11144;43.030;25.108;2024-01-16T02:52:31;83.93;;;44.42;;
21959;SDS011;11144;43.030;25.108;2024-01-16T02:54:05;87.38;;;44.08;;
21959;SDS011;11144;43.030;25.108;2024-01-16T02:55:40;88.25;;;43.08;;
21959;SDS011;11144;43.030;25.108;2024-01-16T02:57:13;74.07;;;36.83;;
21959;SDS011;11144;43.030;25.108;2024-01-16T02:58:46;83.13;;;38.50;;
21959;SDS011;11144;43.030;25.108;2024-01-16T03:00:19;72.30;;;35.55;;
21959;SDS011;11144;43.030;25.108;2024-01-16T03:01:51;45.45;;;23.58;;
21959;SDS011;11144;43.030;25.108;2024-01-16T03:03:26;35.72;;;16.15;;
21959;SDS011;11144;43.030;25.108;2024-01-16T03:04:58;33.40;;;13.80;;
21959;SDS011;11144;43.030;25.108;2024-01-16T03:06:31;25.35;;;13.05;;
21959;SDS011;11144;43.030;25.108;2024-01-16T03:08:04;23.30;;;11.77;;
21959;SDS011;11144;43.030;25.108;2024-01-16T03:09:38;23.73;;;11.05;;
21959;SDS011;11144;43.030;25.108;2024-01-16T03:11:12;23.08;;;12.45;;
21959;SDS011;11144;43.030;25.108;2024-01-16T03:12:45;32.97;;;17.33;;
21959;SDS011;11144;43.030;25.108;2024-01-16T03:14:18;33.55;;;16.48;;
21959;SDS011;11144;43.030;25.108;2024-01-16T03:15:51;20.00;;;8.60;;
21959;SDS011;11144;43.030;25.108;2024-01-16T03:17:23;31.33;;;16.25;;
21959;SDS011;11144;43.030;25.108;2024-01-16T03:18:57;38.58;;;16.67;;
21959;SDS011;11144;43.030;25.108;2024-01-16T03:20:30;30.15;;;15.15;;
21959;SDS011;11144;43.030;25.108;2024-01-16T03:22:03;30.27;;;15.82;;
21959;SDS011;11144;43.030;25.108;2024-01-16T03:23:35;34.63;;;15.63;;
21959;SDS011;11144;43.030;25.108;2024-01-16T03:25:09;34.25;;;17.70;;
21959;SDS011;11144;43.030;25.108;2024-01-16T03:26:43;21.65;;;12.70;;
21959;SDS011;11144;43.030;25.108;2024-01-16T03:28:17;32.97;;;17.52;;
21959;SDS011;11144;43.030;25.108;2024-01-16T03:29:50;42.35;;;19.10;;
21959;SDS011;11144;43.030;25.108;2024-01-16T03:31:24;34.85;;;19.52;;
21959;SDS011;11144;43.030;25.108;2024-01-16T03:32:56;31.15;;;16.63;;
21959;SDS011;11144;43.030;25.108;2024-01-16T03:34:30;32.38;;;17.10;;
21959;SDS011;11144;43.030;25.108;2024-01-16T03:36:02;38.08;;;19.27;;
21959;SDS011;11144;43.030;25.108;2024-01-16T03:37:37;32.20;;;16.90;;
21959;SDS011;11144;43.030;25.108;2024-01-16T03:39:10;36.40;;;19.83;;
21959;SDS011;11144;43.030;25.108;2024-01-16T03:40:43;41.20;;;22.15;;
21959;SDS011;11144;43.030;25.108;2024-01-16T03:42:17;39.80;;;20.48;;
21959;SDS011;11144;43.030;25.108;2024-01-16T03:43:51;41.20;;;21.52;;
21959;SDS011;11144;43.030;25.108;2024-01-16T03:45:23;32.53;;;15.18;;
21959;SDS011;11144;43.030;25.108;2024-01-16T03:46:56;42.47;;;21.48;;
21959;SDS011;11144;43.030;25.108;2024-01-16T03:48:29;41.28;;;21.98;;
21959;SDS011;11144;43.030;25.108;2024-01-16T03:50:03;42.55;;;21.52;;
21959;SDS011;11144;43.030;25.108;2024-01-16T03:51:36;37.58;;;20.17;;
21959;SDS011;11144;43.030;25.108;2024-01-16T03:53:09;41.47;;;21.95;;
21959;SDS011;11144;43.030;25.108;2024-01-16T03:54:42;31.17;;;16.33;;
21959;SDS011;11144;43.030;25.108;2024-01-16T03:56:15;39.03;;;18.52;;
21959;SDS011;11144;43.030;25.108;2024-01-16T03:57:50;42.03;;;20.63;;
21959;SDS011;11144;43.030;25.108;2024-01-16T03:59:24;45.78;;;21.98;;
21959;SDS011;11144;43.030;25.108;2024-01-16T04:00:56;33.17;;;17.85;;
21959;SDS011;11144;43.030;25.108;2024-01-16T04:02:30;45.38;;;21.25;;
21959;SDS011;11144;43.030;25.108;2024-01-16T04:04:02;40.92;;;20.67;;
21959;SDS011;11144;43.030;25.108;2024-01-16T04:05:38;40.03;;;21.25;;
21959;SDS011;11144;43.030;25.108;2024-01-16T04:07:11;40.92;;;22.40;;
21959;SDS011;11144;43.030;25.108;2024-01-16T04:08:44;43.20;;;21.35;;
21959;SDS011;11144;43.030;25.108;2024-01-16T04:10:17;43.53;;;21.70;;
21959;SDS011;11144;43.030;25.108;2024-01-16T04:11:51;39.08;;;20.55;;
21959;SDS011;11144;43.030;25.108;2024-01-16T04:13:24;33.95;;;15.75;;
21959;SDS011;11144;43.030;25.108;2024-01-16T04:14:58;43.35;;;20.13;;
21959;SDS011;11144;43.030;25.108;2024-01-16T04:16:30;39.40;;;18.65;;
21959;SDS011;11144;43.030;25.108;2024-01-16T04:18:03;38.03;;;18.75;;
21959;SDS011;11144;43.030;25.108;2024-01-16T04:19:37;38.22;;;19.48;;
21959;SDS011;11144;43.030;25.108;2024-01-16T04:21:09;38.15;;;19.73;;
21959;SDS011;11144;43.030;25.108;2024-01-16T04:22:43;36.15;;;18.75;;
21959;SDS011;11144;43.030;25.108;2024-01-16T04:24:15;28.98;;;14.02;;
21959;SDS011;11144;43.030;25.108;2024-01-16T04:25:49;38.58;;;17.38;;
21959;SDS011;11144;43.030;25.108;2024-01-16T04:27:21;40.50;;;18.02;;
21959;SDS011;11144;43.030;25.108;2024-01-16T04:28:56;31.60;;;16.38;;
21959;SDS011;11144;43.030;25.108;2024-01-16T04:30:29;33.72;;;17.20;;
21959;SDS011;11144;43.030;25.108;2024-01-16T04:32:02;27.50;;;14.30;;
21959;SDS011;11144;43.030;25.108;2024-01-16T04:33:35;28.13;;;14.57;;
21959;SDS011;11144;43.030;25.108;2024-01-16T04:35:09;21.73;;;12.35;;
21959;SDS011;11144;43.030;25.108;2024-01-16T04:36:42;20.90;;;11.52;;
21959;SDS011;11144;43.030;25.108;2024-01-16T04:38:15;18.33;;;10.00;;
21959;SDS011;11144;43.030;25.108;2024-01-16T04:39:48;25.02;;;10.82;;
21959;SDS011;11144;43.030;25.108;2024-01-16T04:41:21;19.45;;;11.00;;
21959;SDS011;11144;43.030;25.108;2024-01-16T04:42:54;21.60;;;11.52;;
21959;SDS011;11144;43.030;25.108;2024-01-16T04:44:28;18.55;;;9.10;;
21959;SDS011;11144;43.030;25.108;2024-01-16T04:46:01;18.27;;;9.40;;
21959;SDS011;11144;43.030;25.108;2024-01-16T04:47:34;15.75;;;9.05;;
21959;SDS011;11144;43.030;25.108;2024-01-16T04:49:07;16.67;;;9.25;;
21959;SDS011;11144;43.030;25.108;2024-01-16T04:50:41;18.98;;;10.45;;
21959;SDS011;11144;43.030;25.108;2024-01-16T04:52:14;25.65;;;11.85;;
21959;SDS011;11144;43.030;25.108;2024-01-16T04:53:48;20.23;;;11.02;;
21959;SDS011;11144;43.030;25.108;2024-01-16T04:55:20;19.92;;;11.00;;
21959;SDS011;11144;43.030;25.108;2024-01-16T04:56:54;22.20;;;11.50;;
21959;SDS011;11144;43.030;25.108;2024-01-16T04:58:26;18.08;;;9.75;;
21959;SDS011;11144;43.030;25.108;2024-01-16T05:00:01;28.38;;;13.80;;
21959;SDS011;11144;43.030;25.108;2024-01-16T05:01:33;42.80;;;19.90;;
21959;SDS011;11144;43.030;25.108;2024-01-16T05:03:07;19.27;;;8.88;;
21959;SDS011;11144;43.030;25.108;2024-01-16T05:04:39;14.93;;;7.95;;
21959;SDS011;11144;43.030;25.108;2024-01-16T05:06:12;12.85;;;7.40;;
21959;SDS011;11144;43.030;25.108;2024-01-16T05:07:47;11.10;;;5.32;;
21959;SDS011;11144;43.030;25.108;2024-01-16T05:09:20;17.05;;;8.50;;
21959;SDS011;11144;43.030;25.108;2024-01-16T05:10:53;10.35;;;5.90;;
21959;SDS011;11144;43.030;25.108;2024-01-16T05:12:26;34.63;;;16.30;;
21959;SDS011;11144;43.030;25.108;2024-01-16T05:14:00;12.68;;;7.28;;
21959;SDS011;11144;43.030;25.108;2024-01-16T05:15:33;8.02;;;3.97;;
21959;SDS011;11144;43.030;25.108;2024-01-16T05:17:07;9.40;;;4.72;;
21959;SDS011;11144;43.030;25.108;2024-01-16T05:18:41;8.23;;;3.58;;
21959;SDS011;11144;43.030;25.108;2024-01-16T05:20:15;9.75;;;4.95;;
21959;SDS011;11144;43.030;25.108;2024-01-16T05:21:47;8.40;;;4.18;;
21959;SDS011;11144;43.030;25.108;2024-01-16T05:23:21;7.82;;;4.45;;
21959;SDS011;11144;43.030;25.108;2024-01-16T05:24:53;6.18;;;3.65;;
21959;SDS011;11144;43.030;25.108;2024-01-16T05:26:28;4.72;;;3.40;;
21959;SDS011;11144;43.030;25.108;2024-01-16T05:28:03;7.40;;;4.13;;
21959;SDS011;11144;43.030;25.108;2024-01-16T05:29:37;5.43;;;3.50;;
21959;SDS011;11144;43.030;25.108;2024-01-16T05:31:15;5.53;;;2.70;;
21959;SDS011;11144;43.030;25.108;2024-01-16T05:32:51;6.65;;;3.80;;
21959;SDS011;11144;43.030;25.108;2024-01-16T05:34:24;4.60;;;2.85;;
21959;SDS011;11144;43.030;25.108;2024-01-16T05:35:58;5.70;;;2.90;;
21959;SDS011;11144;43.030;25.108;2024-01-16T05:37:31;8.88;;;3.90;;
21959;SDS011;11144;43.030;25.108;2024-01-16T05:39:05;7.13;;;4.05;;
21959;SDS011;11144;43.030;25.108;2024-01-16T05:40:39;8.23;;;4.22;;
21959;SDS011;11144;43.030;25.108;2024-01-16T05:42:14;7.00;;;4.00;;
21959;SDS011;11144;43.030;25.108;2024-01-16T05:43:47;7.28;;;4.20;;
21959;SDS011;11144;43.030;25.108;2024-01-16T05:45:20;7.78;;;4.43;;
21959;SDS011;11144;43.030;25.108;2024-01-16T05:46:54;6.85;;;3.72;;
21959;SDS011;11144;43.030;25.108;2024-01-16T05:48:28;8.85;;;4.35;;
21959;SDS011;11144;43.030;25.108;2024-01-16T05:50:00;9.10;;;4.30;;
21959;SDS011;11144;43.030;25.108;2024-01-16T05:51:34;8.52;;;4.28;;
21959;SDS011;11144;43.030;25.108;2024-01-16T05:53:06;7.38;;;3.63;;
21959;SDS011;11144;43.030;25.108;2024-01-16T05:54:40;5.78;;;3.53;;
21959;SDS011;11144;43.030;25.108;2024-01-16T05:56:12;4.28;;;2.20;;
21959;SDS011;11144;43.030;25.108;2024-01-16T05:57:46;7.55;;;3.63;;
21959;SDS011;11144;43.030;25.108;2024-01-16T05:59:18;6.30;;;3.05;;
21959;SDS011;11144;43.030;25.108;2024-01-16T06:00:52;5.00;;;2.67;;
21959;SDS011;11144;43.030;25.108;2024-01-16T06:02:25;5.70;;;3.13;;
21959;SDS011;11144;43.030;25.108;2024-01-16T06:03:59;9.38;;;2.75;;
21959;SDS011;11144;43.030;25.108;2024-01-16T06:05:32;4.10;;;2.60;;
21959;SDS011;11144;43.030;25.108;2024-01-16T06:07:08;4.22;;;2.75;;
21959;SDS011;11144;43.030;25.108;2024-01-16T06:08:40;5.85;;;3.08;;
21959;SDS011;11144;43.030;25.108;2024-01-16T06:10:14;5.72;;;2.80;;
21959;SDS011;11144;43.030;25.108;2024-01-16T06:11:46;6.70;;;3.20;;
21959;SDS011;11144;43.030;25.108;2024-01-16T06:13:21;8.45;;;3.63;;
21959;SDS011;11144;43.030;25.108;2024-01-16T06:14:53;6.35;;;3.45;;
21959;SDS011;11144;43.030;25.108;2024-01-16T06:16:27;6.70;;;3.03;;
21959;SDS011;11144;43.030;25.108;2024-01-16T06:18:02;5.78;;;3.47;;
21959;SDS011;11144;43.030;25.108;2024-01-16T06:19:36;6.38;;;3.30;;
21959;SDS011;11144;43.030;25.108;2024-01-16T06:21:08;6.40;;;2.92;;
21959;SDS011;11144;43.030;25.108;2024-01-16T06:22:44;4.85;;;2.38;;
21959;SDS011;11144;43.030;25.108;2024-01-16T06:24:16;4.35;;;2.08;;
21959;SDS011;11144;43.030;25.108;2024-01-16T06:25:51;4.90;;;2.38;;
21959;SDS011;11144;43.030;25.108;2024-01-16T06:27:24;7.45;;;3.15;;
21959;SDS011;11144;43.030;25.108;2024-01-16T06:28:57;7.22;;;3.03;;
21959;SDS011;11144;43.030;25.108;2024-01-16T06:30:29;5.47;;;2.63;;
21959;SDS011;11144;43.030;25.108;2024-01-16T06:32:03;5.20;;;2.90;;
21959;SDS011;11144;43.030;25.108;2024-01-16T06:33:37;6.20;;;3.22;;
21959;SDS011;11144;43.030;25.108;2024-01-16T06:35:12;6.35;;;3.45;;
21959;SDS011;11144;43.030;25.108;2024-01-16T06:36:48;4.38;;;2.72;;
21959;SDS011;11144;43.030;25.108;2024-01-16T06:38:21;4.38;;;2.05;;
21959;SDS011;11144;43.030;25.108;2024-01-16T06:39:54;4.75;;;1.98;;
21959;SDS011;11144;43.030;25.108;2024-01-16T06:41:27;4.05;;;2.08;;
21959;SDS011;11144;43.030;25.108;2024-01-16T06:42:59;4.55;;;2.25;;
21959;SDS011;11144;43.030;25.108;2024-01-16T06:44:33;4.78;;;2.30;;
21959;SDS011;11144;43.030;25.108;2024-01-16T06:46:06;4.88;;;2.47;;
21959;SDS011;11144;43.030;25.108;2024-01-16T06:47:39;5.85;;;2.63;;
21959;SDS011;11144;43.030;25.108;2024-01-16T06:49:15;6.28;;;2.50;;
21959;SDS011;11144;43.030;25.108;2024-01-16T06:50:48;5.78;;;2.60;;
21959;SDS011;11144;43.030;25.108;2024-01-16T06:52:21;3.72;;;2.40;;
21959;SDS011;11144;43.030;25.108;2024-01-16T06:53:54;5.15;;;2.13;;
21959;SDS011;11144;43.030;25.108;2024-01-16T06:55:27;2.97;;;1.65;;
21959;SDS011;11144;43.030;25.108;2024-01-16T06:57:00;9.70;;;4.20;;
21959;SDS011;11144;43.030;25.108;2024-01-16T06:58:34;4.55;;;2.45;;
21959;SDS011;11144;43.030;25.108;2024-01-16T07:00:07;8.98;;;3.45;;
21959;SDS011;11144;43.030;25.108;2024-01-16T07:01:41;7.50;;;2.72;;
21959;SDS011;11144;43.030;25.108;2024-01-16T07:03:15;4.20;;;2.13;;
21959;SDS011;11144;43.030;25.108;2024-01-16T07:04:50;7.38;;;2.63;;
21959;SDS011;11144;43.030;25.108;2024-01-16T07:06:25;4.07;;;1.65;;
21959;SDS011;11144;43.030;25.108;2024-01-16T07:08:01;3.83;;;1.92;;
21959;SDS011;11144;43.030;25.108;2024-01-16T07:09:36;3.58;;;1.75;;
21959;SDS011;11144;43.030;25.108;2024-01-16T07:11:11;2.80;;;1.48;;
21959;SDS011;11144;43.030;25.108;2024-01-16T07:12:46;5.55;;;1.83;;
21959;SDS011;11144;43.030;25.108;2024-01-16T07:14:37;3.88;;;2.28;;
21959;SDS011;11144;43.030;25.108;2024-01-16T07:16:11;3.20;;;1.63;;
21959;SDS011;11144;43.030;25.108;2024-01-16T07:17:44;2.55;;;1.17;;
21959;SDS011;11144;43.030;25.108;2024-01-16T07:19:18;2.33;;;1.20;;
21959;SDS011;11144;43.030;25.108;2024-01-16T07:20:51;2.40;;;1.50;;
21959;SDS011;11144;43.030;25.108;2024-01-16T07:22:25;1.48;;;0.88;;
21959;SDS011;11144;43.030;25.108;2024-01-16T07:23:58;2.60;;;1.55;;
21959;SDS011;11144;43.030;25.108;2024-01-16T07:25:32;3.42;;;1.60;;
21959;SDS011;11144;43.030;25.108;2024-01-16T07:27:05;5.20;;;2.67;;
21959;SDS011;11144;43.030;25.108;2024-01-16T07:28:38;4.55;;;2.28;;
21959;SDS011;11144;43.030;25.108;2024-01-16T07:30:11;6.97;;;2.20;;
21959;SDS011;11144;43.030;25.108;2024-01-16T07:31:46;3.50;;;1.85;;
21959;SDS011;11144;43.030;25.108;2024-01-16T07:33:18;2.85;;;1.38;;
21959;SDS011;11144;43.030;25.108;2024-01-16T07:34:51;2.47;;;1.20;;
21959;SDS011;11144;43.030;25.108;2024-01-16T07:36:26;1.90;;;1.00;;
21959;SDS011;11144;43.030;25.108;2024-01-16T07:37:59;4.03;;;1.77;;
21959;SDS011;11144;43.030;25.108;2024-01-16T07:39:36;3.83;;;1.75;;
21959;SDS011;11144;43.030;25.108;2024-01-16T07:41:09;4.40;;;1.85;;
21959;SDS011;11144;43.030;25.108;2024-01-16T07:42:41;3.67;;;1.90;;
21959;SDS011;11144;43.030;25.108;2024-01-16T07:44:15;4.95;;;2.80;;
21959;SDS011;11144;43.030;25.108;2024-01-16T07:45:48;5.93;;;2.90;;
21959;SDS011;11144;43.030;25.108;2024-01-16T07:47:21;5.60;;;2.65;;
21959;SDS011;11144;43.030;25.108;2024-01-16T07:48:53;3.67;;;1.95;;
21959;SDS011;11144;43.030;25.108;2024-01-16T07:50:27;9.55;;;3.08;;
21959;SDS011;11144;43.030;25.108;2024-01-16T07:52:01;5.47;;;2.80;;
21959;SDS011;11144;43.030;25.108;2024-01-16T07:53:34;5.20;;;2.75;;
21959;SDS011;11144;43.030;25.108;2024-01-16T07:55:06;5.50;;;2.75;;
21959;SDS011;11144;43.030;25.108;2024-01-16T07:56:40;8.52;;;4.38;;
21959;SDS011;11144;43.030;25.108;2024-01-16T07:58:13;4.90;;;2.70;;
21959;SDS011;11144;43.030;25.108;2024-01-16T07:59:46;2.53;;;1.50;;
21959;SDS011;11144;43.030;25.108;2024-01-16T08:01:19;3.20;;;1.95;;
21959;SDS011;11144;43.030;25.108;2024-01-16T08:02:52;4.30;;;1.40;;
21959;SDS011;11144;43.030;25.108;2024-01-16T08:04:25;1.63;;;0.95;;
21959;SDS011;11144;43.030;25.108;2024-01-16T08:05:58;3.95;;;1.55;;
21959;SDS011;11144;43.030;25.108;2024-01-16T08:07:34;2.97;;;1.10;;
21959;SDS011;11144;43.030;25.108;2024-01-16T08:09:06;2.88;;;0.90;;
21959;SDS011;11144;43.030;25.108;2024-01-16T08:10:40;2.58;;;1.50;;
21959;SDS011;11144;43.030;25.108;2024-01-16T08:12:14;4.18;;;1.83;;
21959;SDS011;11144;43.030;25.108;2024-01-16T08:13:47;2.28;;;1.35;;
21959;SDS011;11144;43.030;25.108;2024-01-16T08:15:19;4.60;;;1.85;;
21959;SDS011;11144;43.030;25.108;2024-01-16T08:16:53;4.55;;;2.00;;
21959;SDS011;11144;43.030;25.108;2024-01-16T08:18:25;3.38;;;1.80;;
21959;SDS011;11144;43.030;25.108;2024-01-16T08:19:59;3.80;;;1.23;;
21959;SDS011;11144;43.030;25.108;2024-01-16T08:21:32;5.40;;;2.00;;
21959;SDS011;11144;43.030;25.108;2024-01-16T08:23:07;2.60;;;1.13;;
21959;SDS011;11144;43.030;25.108;2024-01-16T08:24:39;2.20;;;1.00;;
21959;SDS011;11144;43.030;25.108;2024-01-16T08:26:12;3.72;;;1.20;;
21959;SDS011;11144;43.030;25.108;2024-01-16T08:27:44;3.28;;;1.50;;
21959;SDS011;11144;43.030;25.108;2024-01-16T08:29:18;5.97;;;1.05;;
21959;SDS011;11144;43.030;25.108;2024-01-16T08:30:50;2.20;;;1.23;;
21959;SDS011;11144;43.030;25.108;2024-01-16T08:32:24;2.80;;;1.38;;
21959;SDS011;11144;43.030;25.108;2024-01-16T08:33:57;2.75;;;1.40;;
21959;SDS011;11144;43.030;25.108;2024-01-16T08:35:30;2.65;;;1.17;;
21959;SDS011;11144;43.030;25.108;2024-01-16T08:37:03;1.80;;;1.00;;
21959;SDS011;11144;43.030;25.108;2024-01-16T08:38:38;2.05;;;1.20;;
21959;SDS011;11144;43.030;25.108;2024-01-16T08:40:10;2.13;;;0.90;;
21959;SDS011;11144;43.030;25.108;2024-01-16T08:41:44;2.75;;;1.52;;
21959;SDS011;11144;43.030;25.108;2024-01-16T08:43:17;2.63;;;1.50;;
21959;SDS011;11144;43.030;25.108;2024-01-16T08:44:51;3.35;;;1.52;;
21959;SDS011;11144;43.030;25.108;2024-01-16T08:46:23;2.97;;;1.27;;
21959;SDS011;11144;43.030;25.108;2024-01-16T08:47:57;2.58;;;1.83;;
21959;SDS011;11144;43.030;25.108;2024-01-16T08:49:31;4.20;;;1.35;;
21959;SDS011;11144;43.030;25.108;2024-01-16T08:51:07;3.75;;;1.77;;
21959;SDS011;11144;43.030;25.108;2024-01-16T08:52:43;2.33;;;1.17;;
21959;SDS011;11144;43.030;25.108;2024-01-16T08:54:18;4.18;;;1.10;;
21959;SDS011;11144;43.030;25.108;2024-01-16T08:55:50;3.67;;;1.40;;
21959;SDS011;11144;43.030;25.108;2024-01-16T08:57:24;3.45;;;1.88;;
21959;SDS011;11144;43.030;25.108;2024-01-16T08:58:59;3.55;;;1.92;;
21959;SDS011;11144;43.030;25.108;2024-01-16T09:00:33;2.78;;;1.48;;
21959;SDS011;11144;43.030;25.108;2024-01-16T09:02:05;2.22;;;1.20;;
21959;SDS011;11144;43.030;25.108;2024-01-16T09:03:38;2.15;;;1.25;;
21959;SDS011;11144;43.030;25.108;2024-01-16T09:05:11;8.15;;;2.35;;